Time;durP1;ratioP1;P1;durP2;ratioP2;P2;SDS_P1;SDS_P2;PMS_P1;PMS_P2;Temp;Humidity;BMP_temperature;BMP_pressure;BME280_temperature;BME280_humidity;BME280_pressure;Samples;Min_cycle;Max_cycle;Signal;HPM_P1;HPM_P2
2022/12/01 00:01:18;;;;;;;66.38;34.10;;;;;;;7.41;87.80;101985.81;5021386;28;20053;-64
2022/12/01 00:03:46;;;;;;;63.55;32.67;;;;;;;7.44;87.78;101991.59;5037452;28;20045;-63
2022/12/01 00:06:16;;;;;;;67.75;35.25;;;;;;;7.35;87.71;101986.84;5022805;28;20050;-62
2022/12/01 00:11:32;;;;;;;64.43;34.10;;;;;;;7.34;88.88;101988.75;5036938;28;20069;-64
2022/12/01 00:14:00;;;;;;;68.45;33.13;;;;;;;7.39;88.20;101983.31;5020603;28;20061;-64
2022/12/01 00:16:27;;;;;;;69.95;33.63;;;;;;;7.26;88.32;101980.19;5036351;28;20050;-65
2022/12/01 00:18:55;;;;;;;67.22;33.90;;;;;;;7.36;89.14;101977.53;5023939;28;20500;-63
2022/12/01 00:21:23;;;;;;;65.30;33.97;;;;;;;7.08;89.62;101975.09;5034652;28;20088;-64
2022/12/01 00:23:53;;;;;;;63.45;33.70;;;;;;;7.23;89.87;101980.72;5015103;28;20049;-63
2022/12/01 00:26:21;;;;;;;64.47;34.08;;;;;;;7.34;88.27;101974.25;5029559;28;20056;-64
2022/12/01 00:28:56;;;;;;;62.38;32.38;;;;;;;7.26;88.01;101975.53;5029564;28;20050;-63
2022/12/01 00:31:24;;;;;;;62.70;32.78;;;;;;;7.13;88.71;101986.13;5031143;28;20056;-63
2022/12/01 00:33:51;;;;;;;70.40;34.70;;;;;;;7.19;88.70;101985.06;5018149;28;20068;-63
2022/12/01 00:36:20;;;;;;;68.70;34.97;;;;;;;7.18;88.12;101980.69;5034028;28;20515;-63
2022/12/01 00:38:50;;;;;;;68.90;33.83;;;;;;;6.92;89.16;101990.56;5036329;28;20049;-64
2022/12/01 00:41:18;;;;;;;71.43;34.15;;;;;;;7.01;89.50;101985.44;5044369;28;20056;-63
2022/12/01 00:43:46;;;;;;;67.68;35.70;;;;;;;7.10;89.02;101992.09;4989850;28;20045;-63
2022/12/01 00:46:13;;;;;;;67.07;35.17;;;;;;;6.92;88.44;101996.03;5044144;28;20461;-63
2022/12/01 00:48:41;;;;;;;63.42;33.58;;;;;;;6.73;89.04;101994.72;5037201;28;20049;-63
2022/12/01 00:51:08;;;;;;;63.75;33.80;;;;;;;6.69;89.10;101991.66;5003828;28;20049;-63
2022/12/01 00:53:35;;;;;;;68.53;34.38;;;;;;;6.93;88.57;101992.22;5016167;28;20056;-63
2022/12/01 00:56:03;;;;;;;67.38;34.58;;;;;;;6.74;88.45;101989.00;5017004;28;20041;-63
2022/12/01 00:58:30;;;;;;;67.80;34.92;;;;;;;6.56;89.24;101986.59;5031838;28;20053;-64
2022/12/01 01:00:59;;;;;;;72.45;34.90;;;;;;;6.44;89.73;101988.66;5024614;28;20469;-64
2022/12/01 01:03:28;;;;;;;66.05;34.53;;;;;;;6.29;89.81;101990.38;5036788;28;20054;-64
2022/12/01 01:05:55;;;;;;;66.47;35.33;;;;;;;6.42;89.90;101979.84;5021216;28;20049;-63
2022/12/01 01:08:22;;;;;;;70.60;37.75;;;;;;;6.48;90.22;101989.78;5036504;28;20054;-64
2022/12/01 01:10:50;;;;;;;70.53;34.33;;;;;;;6.59;89.45;101986.06;5020281;28;20045;-63
2022/12/01 01:13:17;;;;;;;70.82;34.90;;;;;;;6.45;88.95;101984.81;5036408;28;20052;-64
2022/12/01 01:15:44;;;;;;;69.43;35.33;;;;;;;6.55;89.29;101979.47;5035339;28;20049;-63
2022/12/01 01:18:12;;;;;;;67.25;34.92;;;;;;;6.53;88.74;101978.06;5036024;28;20559;-64
2022/12/01 01:20:39;;;;;;;70.95;37.20;;;;;;;6.62;88.76;101977.38;5040537;28;20057;-63
2022/12/01 01:23:06;;;;;;;71.70;35.53;;;;;;;6.46;89.03;101980.19;5043226;28;20053;-63
2022/12/01 01:25:34;;;;;;;67.90;35.10;;;;;;;6.63;88.57;101992.69;5017781;28;20063;-63
2022/12/01 01:28:01;;;;;;;70.75;34.92;;;;;;;6.53;88.31;101989.84;5035995;28;20747;-63
2022/12/01 01:30:28;;;;;;;66.75;34.13;;;;;;;6.60;88.46;102004.16;5021646;28;20053;-63
2022/12/01 01:32:55;;;;;;;69.15;34.58;;;;;;;6.58;88.26;101997.28;5008748;28;20062;-63
2022/12/01 01:35:23;;;;;;;64.47;33.47;;;;;;;6.69;87.83;101999.06;5032480;28;20624;-63
2022/12/01 01:37:50;;;;;;;67.32;34.03;;;;;;;6.91;87.23;101993.53;5026623;28;20066;-63
2022/12/01 01:40:17;;;;;;;69.15;33.92;;;;;;;6.70;86.61;101996.06;5035634;28;20060;-62
2022/12/01 01:42:45;;;;;;;64.07;34.53;;;;;;;6.63;87.12;102000.09;5009454;28;20080;-63
2022/12/01 01:45:23;;;;;;;68.97;36.05;;;;;;;6.72;86.66;102009.50;4998172;28;20053;-63
2022/12/01 01:47:51;;;;;;;63.72;32.58;;;;;;;6.71;86.88;102008.66;5022274;28;20464;-64
2022/12/01 01:50:22;;;;;;;59.03;31.45;;;;;;;6.93;85.92;102010.53;5034938;28;20060;-63
2022/12/01 01:52:58;;;;;;;59.92;31.85;;;;;;;6.84;85.18;102018.41;5033294;28;20056;-63
2022/12/01 01:55:28;;;;;;;66.90;34.88;;;;;;;6.67;85.99;102017.66;5006136;28;20050;-63
2022/12/01 01:57:55;;;;;;;67.38;31.52;;;;;;;6.43;86.61;102008.88;5035284;28;20060;-63
2022/12/01 02:00:23;;;;;;;61.35;34.10;;;;;;;6.41;88.17;102012.97;5026953;28;20052;-64
2022/12/01 02:02:50;;;;;;;64.40;33.95;;;;;;;6.53;87.87;102010.91;5031186;28;20049;-63
2022/12/01 02:05:30;;;;;;;61.20;32.75;;;;;;;6.15;88.48;102017.28;5008976;28;20053;-63
2022/12/01 02:07:58;;;;;;;;;;;;;;;6.42;88.29;101995.44;5028934;28;20046;-63
2022/12/01 02:10:48;;;;;;;61.72;32.72;;;;;;;6.49;87.49;102002.38;5028202;28;19946;-63
2022/12/01 02:13:47;;;;;;;62.92;32.97;;;;;;;6.43;87.19;102011.59;5024772;28;20062;-63
2022/12/01 02:16:39;;;;;;;58.42;31.58;;;;;;;6.50;86.41;102003.22;5023579;28;20048;-64
2022/12/01 02:19:44;;;;;;;60.88;31.90;;;;;;;6.67;85.66;102003.97;5035257;28;20424;-63
2022/12/01 02:22:22;;;;;;;58.17;32.03;;;;;;;6.70;85.24;102004.28;5025537;28;20057;-63
2022/12/01 02:24:54;;;;;;;55.83;30.08;;;;;;;6.96;84.74;101994.41;5009824;28;20057;-63
2022/12/01 02:27:42;;;;;;;59.42;30.52;;;;;;;7.00;83.49;101997.47;5009741;28;20049;-63
2022/12/01 02:30:13;;;;;;;54.67;30.08;;;;;;;6.95;83.39;101997.44;4998124;28;20128;-63
2022/12/01 02:33:01;;;;;;;55.65;29.92;;;;;;;6.89;82.88;101996.53;5002997;28;20053;-63
2022/12/01 02:35:33;;;;;;;56.15;30.40;;;;;;;6.81;82.94;101997.84;5030298;28;20060;-63
2022/12/01 02:38:14;;;;;;;58.33;30.38;;;;;;;6.81;83.08;101997.84;5020404;28;20056;-65
2022/12/01 02:41:10;;;;;;;52.63;28.30;;;;;;;6.80;82.74;101998.91;5021515;28;20053;-64
2022/12/01 02:43:48;;;;;;;56.13;30.10;;;;;;;6.84;82.74;101996.50;5017954;28;20054;-63
2022/12/01 02:46:28;;;;;;;56.30;29.70;;;;;;;6.99;82.58;102002.13;5022092;28;20060;-64
2022/12/01 02:48:58;;;;;;;60.80;31.70;;;;;;;6.81;83.42;101997.84;5013867;28;20071;-64
2022/12/01 02:51:29;;;;;;;57.92;30.95;;;;;;;6.84;83.73;101991.00;5024883;28;20054;-62
2022/12/01 02:53:58;;;;;;;58.65;30.60;;;;;;;6.87;83.98;101992.41;5015048;28;20487;-62
2022/12/01 02:56:26;;;;;;;59.17;30.08;;;;;;;6.51;84.50;101997.50;5032693;28;20076;-62
2022/12/01 02:58:53;;;;;;;56.45;30.30;;;;;;;6.50;84.77;101990.34;5016786;28;20049;-63
2022/12/01 03:01:30;;;;;;;56.33;29.30;;;;;;;6.50;84.39;101995.00;5020500;28;20060;-64
2022/12/01 03:04:14;;;;;;;52.22;27.80;;;;;;;6.35;84.67;101981.97;5020442;28;20041;-63
2022/12/01 03:07:07;;;;;;;49.90;26.98;;;;;;;6.41;84.75;101982.84;5018719;28;20050;-64
2022/12/01 03:09:50;;;;;;;59.22;30.00;;;;;;;6.46;83.95;101974.69;5033121;28;20474;-63
2022/12/01 03:12:46;;;;;;;54.53;28.80;;;;;;;6.58;84.30;101991.81;5034112;28;20057;-62
2022/12/01 03:15:35;;;;;;;56.75;28.88;;;;;;;6.50;83.46;101978.59;5021202;28;20050;-62
2022/12/01 03:18:12;;;;;;;52.22;27.33;;;;;;;6.68;83.10;101979.06;5026194;28;20045;-62
2022/12/01 03:20:41;;;;;;;53.22;28.35;;;;;;;6.44;83.36;101974.97;5020717;28;20412;-64
2022/12/01 03:23:14;;;;;;;54.60;28.55;;;;;;;6.66;83.53;101977.66;5046646;28;20053;-63
2022/12/01 03:25:44;;;;;;;59.40;29.67;;;;;;;6.48;83.10;101967.06;5024525;28;20049;-63
2022/12/01 03:28:14;;;;;;;51.83;27.90;;;;;;;6.66;83.10;101974.91;5010427;28;20052;-62
2022/12/01 03:30:54;;;;;;;57.95;28.73;;;;;;;6.82;82.96;101987.69;5040009;28;20049;-63
2022/12/01 03:33:33;;;;;;;54.20;28.48;;;;;;;6.60;82.82;101982.28;5024543;28;20049;-63
2022/12/01 03:36:04;;;;;;;58.72;30.00;;;;;;;6.61;83.67;101988.56;5030183;28;20080;-63
2022/12/01 03:38:34;;;;;;;59.78;29.83;;;;;;;6.41;84.55;101983.69;5031396;28;20053;-63
2022/12/01 03:41:10;;;;;;;57.83;29.17;;;;;;;6.57;84.33;101993.72;5014908;28;20057;-64
2022/12/01 03:43:40;;;;;;;65.07;31.20;;;;;;;6.54;85.04;101993.41;5001179;28;20053;-62
2022/12/01 03:46:18;;;;;;;65.13;31.30;;;;;;;6.37;85.67;101990.75;5028784;28;20060;-63
2022/12/01 03:48:46;;;;;;;63.55;31.08;;;;;;;6.25;86.55;101995.53;5008954;28;20060;-63
2022/12/01 03:51:22;;;;;;;64.57;32.88;;;;;;;6.40;86.24;101997.59;5010754;28;20389;-63
2022/12/01 03:53:54;;;;;;;60.28;30.20;;;;;;;6.08;86.97;101997.47;5047912;28;20049;-62
2022/12/01 03:56:25;;;;;;;67.50;33.15;;;;;;;6.35;87.28;101986.59;5022024;28;20042;-63
2022/12/01 03:58:55;;;;;;;64.07;31.90;;;;;;;6.47;85.99;101993.59;5011557;28;20045;-63
2022/12/01 04:01:23;;;;;;;66.03;32.90;;;;;;;6.38;86.06;101988.84;5021031;28;20057;-63
2022/12/01 04:03:50;;;;;;;70.10;33.15;;;;;;;6.39;86.12;101980.38;5035964;28;20045;-63
2022/12/01 04:06:18;;;;;;;65.50;32.20;;;;;;;6.37;86.66;101974.31;5024805;28;20056;-63
2022/12/01 04:08:45;;;;;;;66.97;33.50;;;;;;;6.56;86.54;101978.38;5025096;28;20060;-63
2022/12/01 04:13:59;;;;;;;59.70;30.73;;;;;;;6.34;86.14;101974.84;5030408;28;20419;-63
2022/12/01 04:16:26;;;;;;;64.65;31.65;;;;;;;6.51;85.91;101969.28;5046250;28;20053;-63
2022/12/01 04:18:53;;;;;;;68.15;30.65;;;;;;;6.48;86.17;101965.16;5037427;28;20065;-63
2022/12/01 04:21:20;;;;;;;63.95;32.22;;;;;;;6.38;86.07;101972.44;5036419;28;20080;-63
2022/12/01 04:24:00;;;;;;;66.80;32.50;;;;;;;6.31;86.93;101969.84;5019494;28;20053;-63
2022/12/01 04:26:32;;;;;;;65.50;30.50;;;;;;;6.41;86.13;101980.13;5036449;28;20057;-63
2022/12/01 04:29:00;;;;;;;68.57;32.13;;;;;;;6.43;86.91;101972.47;5052728;28;20049;-62
2022/12/01 04:31:28;;;;;;;63.00;31.40;;;;;;;6.28;87.02;101980.47;5035853;28;20049;-64
2022/12/01 04:33:57;;;;;;;71.45;34.20;;;;;;;6.25;87.30;101973.63;5035839;28;20049;-64
2022/12/01 04:36:25;;;;;;;60.63;32.47;;;;;;;6.22;87.31;101985.09;5038644;28;20049;-64
2022/12/01 04:38:52;;;;;;;68.13;33.45;;;;;;;6.10;87.84;101992.56;5044837;28;20057;-63
2022/12/01 04:41:19;;;;;;;66.72;31.75;;;;;;;6.25;87.57;101984.56;5034772;28;20416;-63
2022/12/01 04:43:47;;;;;;;69.25;33.45;;;;;;;6.32;86.88;101974.28;5041596;28;20053;-63
2022/12/01 04:46:14;;;;;;;69.57;33.42;;;;;;;6.12;87.59;101975.91;5035344;28;20052;-63
2022/12/01 04:48:42;;;;;;;65.35;31.40;;;;;;;6.16;87.49;101969.69;5034603;28;20432;-63
2022/12/01 04:51:09;;;;;;;62.97;32.58;;;;;;;6.21;87.09;101988.88;5030009;28;20053;-63
2022/12/01 04:53:37;;;;;;;70.00;33.22;;;;;;;6.11;88.19;101993.41;5036870;28;20045;-63
2022/12/01 04:56:04;;;;;;;67.40;31.27;;;;;;;5.94;88.77;101990.72;5036433;28;20049;-63
2022/12/01 04:58:32;;;;;;;73.07;33.78;;;;;;;6.19;88.10;101977.38;5036724;28;20056;-67
2022/12/01 05:01:01;;;;;;;67.07;31.52;;;;;;;6.24;87.46;101979.34;5036326;28;20060;-63
2022/12/01 05:03:29;;;;;;;73.20;33.15;;;;;;;6.35;87.10;101981.13;5036263;28;20507;-63
2022/12/01 05:06:04;;;;;;;71.20;32.80;;;;;;;6.36;86.28;101988.28;5036287;28;20051;-63
2022/12/01 05:08:33;;;;;;;79.63;34.28;;;;;;;6.23;86.93;101997.69;5041591;28;20045;-62
2022/12/01 05:11:04;;;;;;;72.00;33.45;;;;;;;5.90;89.24;101989.56;5054204;28;20044;-62
2022/12/01 05:13:31;;;;;;;66.60;32.20;;;;;;;6.05;88.90;101989.75;4999902;28;20061;-63
2022/12/01 05:16:13;;;;;;;68.93;32.13;;;;;;;6.21;87.79;101974.38;5011877;28;20049;-64
2022/12/01 05:18:41;;;;;;;64.30;31.35;;;;;;;6.18;87.22;101977.63;5050713;28;20060;-63
2022/12/01 05:21:10;;;;;;;66.28;29.85;;;;;;;6.05;87.50;101995.22;5038154;28;20056;-63
2022/12/01 05:23:38;;;;;;;65.07;31.83;;;;;;;5.87;88.41;101986.50;5038547;28;20059;-63
2022/12/01 05:26:06;;;;;;;65.80;32.30;;;;;;;6.10;88.05;101987.09;5055806;28;20059;-63
2022/12/01 05:28:34;;;;;;;70.45;32.88;;;;;;;6.15;87.45;101978.97;5055950;28;20045;-63
2022/12/01 05:31:02;;;;;;;66.38;31.80;;;;;;;6.11;87.44;101977.81;5037998;28;20144;-64
2022/12/01 05:33:29;;;;;;;66.35;32.45;;;;;;;5.97;87.19;101989.38;5055876;28;20083;-63
2022/12/01 05:35:57;;;;;;;64.55;31.60;;;;;;;5.93;87.66;102001.91;5049489;28;20053;-64
2022/12/01 05:38:24;;;;;;;68.80;31.90;;;;;;;5.97;87.45;101992.94;5017973;28;20050;-63
2022/12/01 05:40:53;;;;;;;72.47;33.50;;;;;;;5.95;87.34;102000.56;5041265;28;20395;-64
2022/12/01 05:43:22;;;;;;;66.80;31.17;;;;;;;5.90;86.93;101994.19;5035346;28;20053;-64
2022/12/01 05:45:56;;;;;;;63.03;31.58;;;;;;;5.90;86.75;101999.66;5028276;28;20531;-64
2022/12/01 05:48:24;;;;;;;69.88;31.50;;;;;;;5.62;87.78;101995.09;5054258;28;20058;-63
2022/12/01 05:50:51;;;;;;;64.80;32.10;;;;;;;5.70;88.18;101997.44;5055202;28;20045;-63
2022/12/01 05:53:18;;;;;;;68.47;32.80;;;;;;;5.69;88.13;101995.75;5055595;28;20056;-64
2022/12/01 05:55:50;;;;;;;64.15;29.75;;;;;;;5.71;87.41;102001.81;5055244;28;20053;-62
2022/12/01 05:58:18;;;;;;;60.85;29.90;;;;;;;5.64;88.66;102001.16;5037667;28;20408;-63
2022/12/01 06:00:45;;;;;;;65.55;31.63;;;;;;;5.54;88.15;101998.25;5055303;28;20041;-64
2022/12/01 06:03:12;;;;;;;64.97;31.02;;;;;;;5.79;88.14;102001.38;5036446;28;20061;-63
2022/12/01 06:05:40;;;;;;;62.80;30.95;;;;;;;5.69;88.03;101996.59;5053826;28;20057;-64
2022/12/01 06:08:07;;;;;;;67.65;31.63;;;;;;;5.77;88.42;101989.06;5055044;28;20155;-62
2022/12/01 06:10:34;;;;;;;65.53;32.42;;;;;;;5.70;87.89;101994.69;5054227;28;20057;-63
2022/12/01 06:13:02;;;;;;;60.70;30.17;;;;;;;6.04;87.24;101979.91;5035870;28;20056;-63
2022/12/01 06:15:29;;;;;;;66.80;31.98;;;;;;;5.89;86.60;101998.00;5020070;28;20049;-64
2022/12/01 06:17:59;;;;;;;64.50;31.77;;;;;;;5.60;87.02;101992.63;5054956;28;20045;-65
2022/12/01 06:20:27;;;;;;;63.28;30.90;;;;;;;5.46;88.51;101996.75;5054936;28;20052;-65
2022/12/01 06:22:54;;;;;;;68.22;33.05;;;;;;;5.50;89.15;101992.47;5055108;28;20060;-65
2022/12/01 06:25:21;;;;;;;68.13;32.35;;;;;;;5.78;87.90;101991.53;5054385;28;20073;-65
2022/12/01 06:27:48;;;;;;;67.38;31.70;;;;;;;5.96;86.55;101991.28;5037257;28;20041;-65
2022/12/01 06:30:16;;;;;;;65.90;33.25;;;;;;;5.97;86.03;101992.94;5054674;28;20059;-65
2022/12/01 06:32:43;;;;;;;68.22;31.67;;;;;;;5.98;85.37;102004.72;5054785;28;20051;-66
2022/12/01 06:35:10;;;;;;;66.90;32.17;;;;;;;5.79;85.79;101997.84;5054655;28;20063;-66
2022/12/01 06:37:37;;;;;;;68.95;31.90;;;;;;;5.66;86.22;101999.84;5053704;28;20053;-67
2022/12/01 06:40:05;;;;;;;60.95;31.48;;;;;;;5.92;85.88;101995.59;5054986;28;20052;-65
2022/12/01 06:42:33;;;;;;;63.63;30.85;;;;;;;5.63;86.16;101989.38;5022748;28;20526;-66
2022/12/01 06:45:00;;;;;;;71.03;31.77;;;;;;;5.76;86.35;101993.69;5017490;28;20060;-65
2022/12/01 06:47:27;;;;;;;64.88;30.08;;;;;;;5.73;86.11;102005.13;5051250;28;20064;-65
2022/12/01 06:49:55;;;;;;;59.50;31.00;;;;;;;5.58;86.51;102004.88;5054652;28;20040;-64
2022/12/01 06:52:22;;;;;;;59.70;30.02;;;;;;;5.59;86.53;102003.81;5036215;28;20052;-65
2022/12/01 06:54:49;;;;;;;61.85;31.05;;;;;;;5.52;86.76;102011.34;5053232;28;20064;-66
2022/12/01 06:57:17;;;;;;;58.95;30.25;;;;;;;5.68;86.57;102005.06;5054243;28;20052;-65
2022/12/01 06:59:44;;;;;;;58.15;29.83;;;;;;;5.79;85.91;102006.03;5035813;28;20056;-65
2022/12/01 07:02:12;;;;;;;62.35;30.60;;;;;;;5.76;85.82;102021.03;5053480;28;20057;-66
2022/12/01 07:04:39;;;;;;;56.92;29.67;;;;;;;5.57;86.21;102019.63;5054543;28;20058;-66
2022/12/01 07:07:07;;;;;;;62.40;30.65;;;;;;;5.60;86.77;102021.84;5054301;28;20053;-65
2022/12/01 07:09:34;;;;;;;57.50;30.27;;;;;;;5.62;86.67;102022.44;5054209;28;20063;-66
2022/12/01 07:12:01;;;;;;;61.35;31.48;;;;;;;5.79;86.26;102034.19;5026676;28;20459;-65
2022/12/01 07:14:30;;;;;;;60.63;31.58;;;;;;;5.82;85.42;102033.69;5016515;28;20069;-65
2022/12/01 07:16:58;;;;;;;59.83;31.30;;;;;;;5.90;85.89;102024.25;5046833;28;20060;-65
2022/12/01 07:19:26;;;;;;;59.17;30.58;;;;;;;6.20;84.42;102024.72;5052417;28;20049;-65
2022/12/01 07:21:53;;;;;;;59.50;30.33;;;;;;;6.03;84.40;102045.81;5036014;28;20079;-65
2022/12/01 07:24:20;;;;;;;67.95;31.95;;;;;;;6.01;84.91;102037.84;5053972;28;20053;-65
2022/12/01 07:26:48;;;;;;;62.70;30.65;;;;;;;6.19;84.34;102051.22;5053857;28;20368;-65
2022/12/01 07:29:15;;;;;;;56.65;31.02;;;;;;;6.05;84.11;102041.72;5053861;28;20060;-66
2022/12/01 07:31:42;;;;;;;60.10;31.52;;;;;;;6.27;83.79;102052.72;5053922;28;20040;-66
2022/12/01 07:34:12;;;;;;;66.68;30.50;;;;;;;6.00;83.67;102049.84;5036604;28;20049;-66
2022/12/01 07:36:39;;;;;;;58.13;29.83;;;;;;;5.91;84.11;102054.09;5038227;28;20054;-66
2022/12/01 07:39:07;;;;;;;60.60;31.17;;;;;;;5.77;84.58;102068.34;4980881;28;20049;-66
2022/12/01 07:41:34;;;;;;;63.63;31.23;;;;;;;5.65;85.18;102065.66;5007587;28;20053;-65
2022/12/01 07:44:02;;;;;;;64.30;31.02;;;;;;;5.77;85.73;102069.13;5002523;28;20048;-64
2022/12/01 07:46:29;;;;;;;55.60;29.45;;;;;;;5.90;84.94;102078.94;5026552;28;20061;-66
2022/12/01 07:48:58;;;;;;;60.78;30.95;;;;;;;5.93;84.61;102079.28;5051622;28;20538;-65
2022/12/01 07:51:26;;;;;;;68.93;32.17;;;;;;;5.91;84.19;102069.69;5026174;28;20047;-65
2022/12/01 07:53:54;;;;;;;59.70;30.75;;;;;;;5.97;84.27;102082.34;5040022;28;20045;-66
2022/12/01 07:56:22;;;;;;;63.17;31.42;;;;;;;5.94;84.76;102089.16;5016443;28;20056;-66
2022/12/01 07:58:49;;;;;;;51.30;27.80;;;;;;;5.49;85.66;102089.16;4987417;28;20046;-66
2022/12/01 08:01:19;;;;;;;64.00;30.42;;;;;;;5.74;85.48;102092.34;5025979;28;20045;-64
2022/12/01 08:03:51;;;;;;;63.67;31.73;;;;;;;5.96;84.41;102091.63;5010321;28;20061;-65
2022/12/01 08:06:19;;;;;;;65.57;31.08;;;;;;;5.95;84.60;102098.16;5025974;28;20072;-63
2022/12/01 08:08:47;;;;;;;62.45;30.25;;;;;;;5.83;84.76;102095.53;5011728;28;20053;-65
2022/12/01 08:11:17;;;;;;;57.47;29.55;;;;;;;5.46;86.03;102099.75;5018353;28;20350;-63
2022/12/01 08:13:45;;;;;;;72.43;33.58;;;;;;;5.39;86.45;102108.13;5009296;28;20049;-66
2022/12/01 08:16:17;;;;;;;100.50;34.85;;;;;;;5.35;86.92;102112.41;5012613;28;20080;-67
2022/12/01 08:18:45;;;;;;;71.40;31.05;;;;;;;5.47;87.14;102115.09;5023913;28;20060;-66
2022/12/01 08:21:14;;;;;;;61.00;29.27;;;;;;;5.43;87.05;102111.19;5026855;28;20088;-66
2022/12/01 08:23:42;;;;;;;53.72;29.20;;;;;;;5.46;87.04;102110.69;5010850;28;20050;-65
2022/12/01 08:26:12;;;;;;;50.42;28.10;;;;;;;5.44;87.39;102099.19;5018606;28;20054;-65
2022/12/01 08:28:40;;;;;;;52.85;29.50;;;;;;;5.63;86.28;102108.84;5027720;28;20042;-65
2022/12/01 08:31:16;;;;;;;54.80;28.67;;;;;;;5.61;85.99;102103.59;5031501;28;20049;-65
2022/12/01 08:33:45;;;;;;;46.60;27.17;;;;;;;5.44;86.63;102116.41;5016378;28;20045;-67
2022/12/01 08:36:13;;;;;;;53.90;28.48;;;;;;;5.54;87.28;102104.84;5035564;28;20049;-66
2022/12/01 08:38:44;;;;;;;53.90;29.17;;;;;;;5.38;87.56;102106.47;5002830;28;20222;-67
2022/12/01 08:41:12;;;;;;;51.30;26.73;;;;;;;5.54;86.97;102111.13;5020747;28;20060;-67
2022/12/01 08:43:43;;;;;;;51.65;26.63;;;;;;;5.42;86.65;102104.88;5019018;28;20053;-66
2022/12/01 08:46:30;;;;;;;51.45;25.60;;;;;;;5.68;87.63;102097.97;5015233;28;20076;-65
2022/12/01 08:48:58;;;;;;;53.80;26.30;;;;;;;5.53;86.61;102097.69;5023794;28;20046;-65
2022/12/01 08:51:25;;;;;;;55.65;27.58;;;;;;;5.42;87.40;102109.53;5021089;28;20436;-64
2022/12/01 08:53:54;;;;;;;47.35;26.25;;;;;;;5.58;86.93;102104.09;5015018;28;20050;-64
2022/12/01 08:56:37;;;;;;;46.58;25.40;;;;;;;5.71;86.70;102116.63;5023729;28;20038;-64
2022/12/01 08:59:04;;;;;;;48.08;26.40;;;;;;;5.65;86.86;102107.50;4995305;28;20068;-65
2022/12/01 09:01:32;;;;;;;46.90;24.67;;;;;;;5.77;86.25;102109.34;5017387;28;20041;-65
2022/12/01 09:04:09;;;;;;;44.25;24.08;;;;;;;5.88;85.60;102112.00;5030156;28;20052;-65
2022/12/01 09:06:40;;;;;;;47.08;23.65;;;;;;;5.82;85.50;102113.00;5019263;28;20523;-66
2022/12/01 09:09:10;;;;;;;45.08;23.13;;;;;;;5.84;85.53;102123.72;5012516;28;20523;-65
2022/12/01 09:11:37;;;;;;;44.70;24.50;;;;;;;5.86;85.08;102116.09;5014247;28;20114;-66
2022/12/01 09:14:05;;;;;;;45.70;25.27;;;;;;;5.82;86.37;102107.53;5011856;28;20064;-66
2022/12/01 09:16:32;;;;;;;43.10;24.92;;;;;;;6.12;85.76;102108.03;5029094;28;20049;-66
2022/12/01 09:19:00;;;;;;;42.05;23.10;;;;;;;6.08;84.18;102114.25;5018557;28;20042;-66
2022/12/01 09:21:31;;;;;;;56.72;25.38;;;;;;;6.15;84.78;102103.97;5005621;28;20042;-64
2022/12/01 09:24:00;;;;;;;46.15;25.63;;;;;;;6.28;83.85;102109.06;5019644;28;20061;-65
2022/12/01 09:26:27;;;;;;;41.92;23.27;;;;;;;6.28;83.64;102107.19;5013892;28;20402;-66
2022/12/01 09:29:02;;;;;;;45.72;24.73;;;;;;;6.07;83.80;102107.94;5003495;28;20053;-66
2022/12/01 09:31:29;;;;;;;43.88;24.10;;;;;;;6.16;84.26;102120.13;5025754;28;20049;-65
2022/12/01 09:34:00;;;;;;;46.92;27.00;;;;;;;6.28;83.48;102117.28;5016824;28;20045;-65
2022/12/01 09:36:28;;;;;;;41.33;24.75;;;;;;;6.52;83.16;102105.88;5033768;28;20064;-65
2022/12/01 09:38:56;;;;;;;43.42;24.67;;;;;;;6.84;82.17;102106.88;5029384;28;20053;-65
2022/12/01 09:41:27;;;;;;;45.92;25.80;;;;;;;6.16;83.66;102117.41;5032512;28;20057;-66
2022/12/01 09:44:32;;;;;;;43.55;23.25;;;;;;;6.44;83.37;102117.28;5032270;28;20049;-66
2022/12/01 09:47:17;;;;;;;49.40;24.73;;;;;;;5.99;83.42;102124.78;5007972;28;20080;-65
2022/12/01 09:49:59;;;;;;;43.55;23.75;;;;;;;6.17;84.38;102116.31;5028426;28;20061;-65
2022/12/01 09:52:28;;;;;;;43.15;24.52;;;;;;;6.48;83.38;102114.88;5019308;28;20056;-67
2022/12/01 09:54:58;;;;;;;49.53;26.15;;;;;;;6.46;82.72;102109.66;5008251;28;20045;-66
2022/12/01 09:57:31;;;;;;;43.67;25.37;;;;;;;6.28;82.63;102107.19;5019771;28;20057;-66
2022/12/01 10:00:01;;;;;;;45.70;25.27;;;;;;;6.25;83.00;102118.63;5006461;28;20308;-66
2022/12/01 10:02:41;;;;;;;46.17;24.98;;;;;;;6.44;82.45;102120.00;5018198;28;20477;-66
2022/12/01 10:05:14;;;;;;;44.03;25.63;;;;;;;6.77;82.11;102116.34;4986674;28;20615;-65
2022/12/01 10:07:48;;;;;;;42.33;24.08;;;;;;;6.91;80.50;102114.88;5007440;28;20054;-68
2022/12/01 10:10:35;;;;;;;45.80;24.17;;;;;;;6.74;80.65;102114.97;5013408;28;20053;-64
2022/12/01 10:13:11;;;;;;;44.03;24.05;;;;;;;6.62;80.59;102105.19;5021496;28;20049;-66
2022/12/01 10:15:45;;;;;;;47.47;24.60;;;;;;;6.82;80.96;102106.28;5000913;28;20072;-66
2022/12/01 10:18:21;;;;;;;44.78;23.05;;;;;;;7.01;80.36;102090.34;5008400;28;20536;-65
2022/12/01 10:21:07;;;;;;;41.17;22.98;;;;;;;6.72;79.74;102095.22;5003318;28;20047;-66
2022/12/01 10:23:47;;;;;;;42.92;23.85;;;;;;;6.86;80.23;102095.66;5022559;28;20049;-66
2022/12/01 10:26:24;;;;;;;40.13;22.33;;;;;;;6.78;79.70;102101.59;5015489;28;20080;-66
2022/12/01 10:29:27;;;;;;;40.20;21.80;;;;;;;6.89;79.58;102100.59;5028728;28;20531;-65
2022/12/01 10:32:05;;;;;;;39.90;22.75;;;;;;;6.89;79.82;102091.59;5012628;28;20050;-65
2022/12/01 10:34:35;;;;;;;39.45;22.30;;;;;;;6.84;78.87;102082.22;4995055;28;20057;-67
2022/12/01 10:37:03;;;;;;;41.40;22.92;;;;;;;6.63;80.01;102093.16;5016229;28;20495;-64
2022/12/01 10:39:35;;;;;;;39.15;23.08;;;;;;;6.75;79.63;102082.91;5016772;28;20044;-66
2022/12/01 10:42:11;;;;;;;44.58;23.50;;;;;;;6.95;79.55;102080.44;5034138;28;20488;-66
2022/12/01 10:44:39;;;;;;;39.45;22.40;;;;;;;6.89;79.27;102081.44;5019567;28;20049;-66
2022/12/01 10:47:19;;;;;;;36.42;21.23;;;;;;;6.93;79.54;102084.50;5016753;28;20083;-65
2022/12/01 10:49:46;;;;;;;35.45;22.75;;;;;;;6.35;80.37;102082.38;5033465;28;20052;-65
2022/12/01 10:52:35;;;;;;;38.50;21.70;;;;;;;6.74;80.35;102090.31;5001211;28;20495;-65
2022/12/01 10:55:05;;;;;;;41.08;22.50;;;;;;;6.82;79.77;102078.91;5014112;28;20064;-65
2022/12/01 10:57:32;;;;;;;36.78;22.27;;;;;;;6.78;78.66;102071.47;5015574;28;20484;-64
2022/12/01 11:00:06;;;;;;;39.53;21.30;;;;;;;6.80;78.70;102070.13;5022411;28;20041;-64
2022/12/01 11:02:34;;;;;;;39.78;22.10;;;;;;;6.68;79.43;102074.06;5016832;28;20049;-66
2022/12/01 11:05:06;;;;;;;43.80;23.63;;;;;;;6.23;82.20;102076.19;5014777;28;20048;-65
2022/12/01 11:07:41;;;;;;;39.95;22.15;;;;;;;6.42;81.42;102072.91;5004391;28;20388;-66
2022/12/01 11:10:32;;;;;;;38.45;21.08;;;;;;;6.70;80.65;102058.22;5008550;28;20056;-65
2022/12/01 11:13:22;;;;;;;37.65;22.08;;;;;;;6.63;80.52;102057.56;5010299;28;20045;-65
2022/12/01 11:15:51;;;;;;;;;;;;;;;6.87;78.91;102056.22;5024182;28;20061;-65
2022/12/01 11:18:38;;;;;;;40.63;20.65;;;;;;;6.99;78.08;102056.91;5009916;28;19921;-65
2022/12/01 11:21:26;;;;;;;36.47;21.65;;;;;;;6.85;77.25;102059.22;4994442;28;20065;-65
2022/12/01 11:23:55;;;;;;;33.25;20.55;;;;;;;6.72;78.10;102056.03;4997552;28;20054;-65
2022/12/01 11:26:24;;;;;;;44.00;21.20;;;;;;;6.69;78.30;102064.78;5022132;28;20046;-65
2022/12/01 11:29:14;;;;;;;37.85;21.00;;;;;;;6.52;79.52;102070.28;5017043;28;20054;-64
2022/12/01 11:31:47;;;;;;;38.75;22.25;;;;;;;6.73;79.96;102060.44;5015129;28;20061;-63
2022/12/01 11:34:22;;;;;;;40.45;23.98;;;;;;;6.87;78.82;102047.19;5002969;28;20041;-65
2022/12/01 11:36:54;;;;;;;39.25;21.92;;;;;;;7.15;78.55;102050.50;5007601;28;20037;-65
2022/12/01 11:39:35;;;;;;;40.67;23.17;;;;;;;7.17;77.71;102047.50;5010091;28;20049;-65
2022/12/01 11:42:18;;;;;;;41.65;22.13;;;;;;;6.95;78.10;102052.19;5017033;28;20065;-64